AirNav   Everest Fuels
 
 408 users online  

CA69 Avenal Gliderport
Avenal, California, USA

GOING TO AVENAL?


FAA INFORMATION EFFECTIVE 15 JULY 2021

Location

FAA Identifier: CA69
Lat/Long: 36-00-10.9100N 120-08-31.9000W
36-00.181833N 120-08.531667W
36.0030306,-120.1421944
(estimated)
Elevation: 782 ft. / 238 m (estimated)
Variation: 15E (1985)
Time zone: UTC -7 (UTC -8 during Standard Time)
Zip code: 93204

Gliderport Operations

Gliderport use: Private use. Permission required prior to landing
Activation date: 10/1946
Control tower: no
ARTCC: OAKLAND CENTER
FSS: RANCHO MURIETA FLIGHT SERVICE STATION
Attendance: CONTINUOUS
Wind indicator: yes
Segmented circle: yes

Gliderport Communications

WX AWOS-3 at C80 (12 nm NW): 119.275 (559-935-5960)

Nearby radio navigation aids

VOR radial/distance  VOR name  Freq  Var
AVEr324/22.8AVENAL VOR/DME117.1016E
PRBr034/30.8PASO ROBLES VORTAC114.3016E
VISr220/38.7VISALIA VOR/DME109.4016E

 
NDB name  Hdg/Dist  Freq  Var  ID
SALYER FARMS247/29.920516ECOR -.-. --- .-.

Gliderport Services

Runway Information

Runway 12/30

Dimensions: 2770 x 60 ft. / 844 x 18 m
Surface: dirt, in fair condition
RUNWAY 12  RUNWAY 30
Latitude: 36-00.332333N36-00.031667N
Longitude: 120-08.742667W120-08.320000W
Elevation: 782.0 ft.768.0 ft.
Traffic pattern: rightleft
Obstructions: 25 ft. trees, 500 ft. from runway, 147 ft. left of centerline, 20:1 slope to clear4 ft. fence, 130 ft. from runway, 127 ft. left of centerline, 32:1 slope to clear

Gliderport Ownership and Management from official FAA records

Ownership: Privately-owned
Owner: AVENAL GLIDERPORT CORPORATION
C/O: DANIEL GUDGEL, 134 SOUTH OLIVE STREET
LEMOORE, CA 93245-3412
Phone 559-924-7134
Manager: DANIEL GUDGEL
134 SOUTH OLIVE STREET
LEMOORE, CA 93245-3412
Phone 559-924-7134

Gliderport Operational Statistics

Aircraft based on the field: 6
Single engine airplanes: 6
    

Additional Remarks

E98 PLUS ONE SHELTER.
FLD COND FAIR TO GOOD.
FOR CD CTC OAKLAND ARTCC AT 510-745-3380.

Instrument Procedures

There are no published instrument procedures at CA69.

Some nearby airports with instrument procedures:

KNLC - Lemoore Naval Air Station (Reeves Field) (22 nm NE)
KPRB - Paso Robles Municipal Airport (31 nm SW)
KHJO - Hanford Municipal Airport (31 nm NE)
KTLR - Mefford Field Airport (41 nm E)
KVIS - Visalia Municipal Airport (41 nm NE)
 
Loc | Ops | Rwys | IFR | FBO | Links
Com | Nav | Svcs | Stats | Notes
Area around CA69 (Avenal Gliderport)
 
Road maps at: MapQuest Bing Google
 
Aerial photo
WARNING: Photo may not be current or correct
Aerial photo of CA69 (Avenal Gliderport)
Photo by Eric Burlingame
Photo taken 28-Jan-2017
looking northwest

Do you have a better or more recent aerial photo of Avenal Gliderport that you would like to share? If so, please send us your photo.

 
Sectional chart

 
Airport distance calculator
Flying to Avenal Gliderport? Find the distance to fly.

From to CA69

Sunrise and sunset
Times for 03-Aug-2021
 Local
(UTC-7)
 Zulu
(UTC)
Morning civil twilight05:4212:42
Sunrise06:1013:10
Sunset20:0303:03
Evening civil twilight20:3103:31

Current date and time
Zulu (UTC)  03-Aug-2021 07:30:19
Local (UTC-7)  03-Aug-2021 00:30:19
 
METAR
KNLC 
21nm NE 
030656Z 33007KT 10SM CLR 22/08 A2997 RMK AO2 SLP146 RH/35 T02220078
KPRB 
31nm SW 
030653Z AUTO 28006KT 10SM CLR 18/08 A3003 RMK AO2 SLP162 T01830083
KHJO 
32nm NE 
030653Z AUTO 33007KT 10SM CLR 26/13 A2997 RMK AO2 SLP148 T02610133
KVIS 
41nm NE 
030656Z AUTO 33007KT 10SM CLR 26/13 A2997 RMK AO2 SLP152 T02610133
TAF
KNLC 
21nm NE 
0223/0323 01009KT 9999 FEW180 QNH2988INS TEMPO 0300/0306 33008KT FEW180 FM030600 31008KT 9999 SKC QNH2986INS T18/0314Z T41/0323Z FS30012
NOTAMs
Click for the latest NOTAMs
NOTAMs are issued by the DoD/FAA and will open in a separate window not controlled by AirNav.

 

 
 

Would you like to see your business listed on this page?

 If your business provides an interesting product or service to pilots, flight crews, aircraft, or users of the Avenal Gliderport, you should consider listing it here.  To start the listing process, click on the button below
 
Add a business
 

Other Pages about Avenal Gliderport

www.soaravenal.com/location.htm
 
Update a link
 
Copyright © AirNav, LLC. All rights reserved. Privacy Policy  Contact